createdAt,value
2023-07-11T00:01:02.918Z,9.10
2023-07-11T00:03:39.506Z,9.50
2023-07-11T00:06:10.366Z,9.20
2023-07-11T00:08:38.431Z,10.30
2023-07-11T00:11:11.892Z,10.30
2023-07-11T00:13:40.930Z,9.90
2023-07-11T00:16:12.291Z,9.80
2023-07-11T00:18:40.332Z,10.70
2023-07-11T00:21:08.619Z,10.20
2023-07-11T00:23:37.004Z,10.50
2023-07-11T00:26:05.740Z,9.80
2023-07-11T00:28:34.028Z,9.60
2023-07-11T00:31:02.150Z,10.30
2023-07-11T00:33:30.703Z,10.80
2023-07-11T00:35:58.573Z,11.00
2023-07-11T00:38:27.077Z,11.60
2023-07-11T00:40:54.851Z,11.00
2023-07-11T00:43:23.020Z,10.60
2023-07-11T00:46:12.500Z,10.80
2023-07-11T00:48:49.657Z,11.20
2023-07-11T00:51:21.794Z,11.70
2023-07-11T00:53:50.129Z,11.80
2023-07-11T00:56:22.503Z,12.00
2023-07-11T00:58:51.154Z,12.40
2023-07-11T01:01:20.211Z,11.70
2023-07-11T01:03:49.578Z,11.60
2023-07-11T01:06:21.427Z,11.70
2023-07-11T01:08:51.301Z,11.80
2023-07-11T01:11:20.596Z,11.90
2023-07-11T01:13:48.766Z,11.80
2023-07-11T01:16:16.892Z,12.10
2023-07-11T01:18:44.992Z,12.30
2023-07-11T01:21:18.330Z,12.30
2023-07-11T01:23:48.490Z,12.30
2023-07-11T01:26:16.979Z,12.20
2023-07-11T01:28:47.309Z,12.00
2023-07-11T01:31:15.239Z,13.00
2023-07-11T01:33:43.068Z,12.30
2023-07-11T01:36:11.086Z,12.60
2023-07-11T01:38:38.940Z,12.50
2023-07-11T01:41:06.656Z,13.10
2023-07-11T01:43:34.479Z,12.70
2023-07-11T01:46:02.258Z,13.50
2023-07-11T01:48:30.903Z,13.50
2023-07-11T01:50:58.562Z,13.30
2023-07-11T01:53:26.337Z,12.80
2023-07-11T01:55:58.727Z,12.90
2023-07-11T01:58:27.840Z,13.90
2023-07-11T02:00:58.212Z,13.70
2023-07-11T02:03:26.683Z,14.70
2023-07-11T02:05:55.573Z,15.00
2023-07-11T02:08:23.319Z,15.50
2023-07-11T02:10:50.983Z,15.30
2023-07-11T02:13:18.658Z,15.00
2023-07-11T02:15:46.670Z,16.40
2023-07-11T02:18:14.448Z,17.90
2023-07-11T02:20:45.701Z,17.50
2023-07-11T02:23:14.826Z,19.10
2023-07-11T02:25:43.665Z,19.60
2023-07-11T02:28:11.670Z,19.80
2023-07-11T02:30:39.708Z,20.60
2023-07-11T02:33:07.608Z,20.60
2023-07-11T02:35:35.532Z,20.50
2023-07-11T02:38:03.384Z,19.80
2023-07-11T02:40:31.148Z,20.50
2023-07-11T02:42:58.861Z,20.00
2023-07-11T02:45:26.763Z,19.80
2023-07-11T02:47:54.652Z,21.50
2023-07-11T02:50:22.347Z,20.70
2023-07-11T02:52:50.253Z,21.00
2023-07-11T02:55:18.149Z,21.10
2023-07-11T02:57:45.990Z,20.80
2023-07-11T03:00:14.504Z,21.70
2023-07-11T03:02:42.210Z,21.40
2023-07-11T03:05:10.516Z,19.60
2023-07-11T03:07:38.357Z,21.00
2023-07-11T03:10:06.919Z,21.10
2023-07-11T03:12:34.590Z,20.20
2023-07-11T03:15:04.632Z,19.40
2023-07-11T03:17:33.223Z,20.00
2023-07-11T03:20:01.346Z,20.30
2023-07-11T03:22:29.558Z,20.40
2023-07-11T03:24:57.312Z,19.90
2023-07-11T03:27:25.004Z,19.10
2023-07-11T03:29:52.671Z,18.70
2023-07-11T03:32:20.421Z,18.50
2023-07-11T03:34:54.184Z,17.50
2023-07-11T03:37:26.597Z,16.80
2023-07-11T03:39:54.708Z,17.70
2023-07-11T03:42:22.558Z,16.50
2023-07-11T03:44:50.339Z,16.40
2023-07-11T03:47:18.440Z,16.40
2023-07-11T03:49:46.104Z,16.00
2023-07-11T03:52:13.944Z,15.80
2023-07-11T03:54:41.662Z,16.50
2023-07-11T03:57:09.534Z,17.00
2023-07-11T03:59:37.233Z,16.10
2023-07-11T04:02:05.407Z,15.80
2023-07-11T04:04:34.273Z,15.70
2023-07-11T04:07:03.445Z,16.60
2023-07-11T04:09:31.155Z,16.80
2023-07-11T04:11:58.978Z,17.00
2023-07-11T04:14:26.667Z,16.90
2023-07-11T04:16:54.558Z,17.00
2023-07-11T04:19:22.618Z,17.80
2023-07-11T04:21:50.354Z,17.00
2023-07-11T04:24:18.038Z,16.50
2023-07-11T04:26:46.909Z,17.90
2023-07-11T04:29:14.630Z,16.10
2023-07-11T04:31:42.359Z,16.40
2023-07-11T04:34:10.048Z,16.80
2023-07-11T04:36:37.743Z,16.80
2023-07-11T04:39:05.620Z,17.40
2023-07-11T04:41:33.383Z,18.00
2023-07-11T04:44:01.057Z,17.90
2023-07-11T04:46:28.853Z,16.70
2023-07-11T04:48:56.670Z,14.60
2023-07-11T04:51:24.406Z,13.10
2023-07-11T04:53:52.124Z,12.30
2023-07-11T04:56:19.864Z,11.70
2023-07-11T04:58:47.541Z,10.70
2023-07-11T05:01:18.594Z,9.70
2023-07-11T05:03:49.954Z,10.80
2023-07-11T05:06:18.048Z,7.50
2023-07-11T05:08:45.753Z,7.80
2023-07-11T05:11:16.443Z,5.80
2023-07-11T05:13:46.330Z,4.90
2023-07-11T05:16:17.098Z,4.40
2023-07-11T05:18:46.385Z,4.40
2023-07-11T05:21:16.980Z,4.50
2023-07-11T05:23:45.124Z,4.40
2023-07-11T05:26:14.279Z,4.10
2023-07-11T05:28:42.006Z,3.80
2023-07-11T05:31:10.270Z,4.20
2023-07-11T05:33:38.209Z,3.40
2023-07-11T05:36:22.052Z,3.50
2023-07-11T05:38:50.794Z,3.30
2023-07-11T05:41:20.311Z,3.30
2023-07-11T05:43:48.677Z,3.50
2023-07-11T05:46:16.866Z,3.40
2023-07-11T05:48:44.778Z,3.30
2023-07-11T05:51:15.817Z,3.20
2023-07-11T05:53:44.578Z,3.30
2023-07-11T05:56:12.563Z,3.40
2023-07-11T05:58:40.988Z,3.30
2023-07-11T06:01:08.872Z,3.30
2023-07-11T06:03:36.721Z,3.20
2023-07-11T06:06:06.570Z,3.00
2023-07-11T06:08:34.633Z,3.60
2023-07-11T06:11:04.231Z,3.40
2023-07-11T06:13:33.692Z,2.90
2023-07-11T06:16:05.251Z,3.50
2023-07-11T06:18:35.841Z,3.20
2023-07-11T06:21:04.880Z,3.40
2023-07-11T06:23:32.934Z,3.10
2023-07-11T06:26:00.953Z,3.30
2023-07-11T06:28:28.946Z,3.30
2023-07-11T06:31:00.380Z,3.30
2023-07-11T06:33:29.195Z,3.10
2023-07-11T06:35:57.997Z,3.10
2023-07-11T06:38:25.808Z,3.40
2023-07-11T06:40:55.968Z,3.10
2023-07-11T06:43:25.356Z,3.00
2023-07-11T06:45:55.279Z,3.10
2023-07-11T06:48:26.780Z,2.90
2023-07-11T06:51:05.023Z,2.90
2023-07-11T06:53:34.477Z,3.10
2023-07-11T06:56:03.355Z,2.90
2023-07-11T06:58:31.651Z,2.60
2023-07-11T07:01:11.340Z,2.80
2023-07-11T07:03:44.431Z,2.80
2023-07-11T07:06:14.098Z,3.00
2023-07-11T07:08:42.030Z,3.00
2023-07-11T07:11:10.723Z,2.50
2023-07-11T07:13:43.702Z,3.10
2023-07-11T07:16:16.740Z,2.60
2023-07-11T07:18:45.404Z,2.70
2023-07-11T07:21:13.337Z,2.60
2023-07-11T07:23:42.127Z,2.90
2023-07-11T07:26:09.787Z,2.70
2023-07-11T07:28:37.498Z,2.90
2023-07-11T07:31:07.570Z,3.20
2023-07-11T07:33:36.497Z,3.20
2023-07-11T07:36:06.566Z,3.10
2023-07-11T07:38:34.973Z,2.90
2023-07-11T07:41:08.189Z,3.00
2023-07-11T07:43:37.490Z,2.80
2023-07-11T07:46:06.249Z,2.60
2023-07-11T07:48:34.549Z,3.00
2023-07-11T07:51:09.053Z,2.60
2023-07-11T07:53:37.093Z,2.60
2023-07-11T07:56:06.929Z,2.40
2023-07-11T08:01:07.432Z,2.70
2023-07-11T08:03:37.366Z,2.60
2023-07-11T08:06:15.313Z,2.50
2023-07-11T08:08:48.941Z,2.80
2023-07-11T08:11:18.956Z,2.80
2023-07-11T08:18:48.515Z,2.70
2023-07-11T08:21:16.183Z,2.80
2023-07-11T08:23:43.858Z,3.10
2023-07-11T08:26:12.007Z,3.10
2023-07-11T08:28:42.849Z,2.70
2023-07-11T08:31:11.379Z,2.80
2023-07-11T08:33:39.568Z,2.90
2023-07-11T08:36:07.770Z,3.00
2023-07-11T08:38:35.531Z,2.70
2023-07-11T08:41:11.818Z,2.80
2023-07-11T08:43:39.618Z,2.70
2023-07-11T08:46:13.868Z,2.70
2023-07-11T08:48:47.218Z,2.90
2023-07-11T08:51:20.696Z,2.60
2023-07-11T08:53:57.456Z,3.30
2023-07-11T08:56:43.299Z,3.00
2023-07-11T08:59:16.152Z,2.70
2023-07-11T09:01:54.131Z,2.80
2023-07-11T09:04:23.899Z,2.90
2023-07-11T09:06:55.707Z,2.90
2023-07-11T09:09:23.950Z,3.10
2023-07-11T09:12:13.486Z,3.40
2023-07-11T09:14:47.092Z,2.90
2023-07-11T09:17:36.550Z,2.80
2023-07-11T09:20:29.999Z,2.90
2023-07-11T09:23:33.276Z,2.70
2023-07-11T09:26:10.000Z,3.20
2023-07-11T09:28:39.160Z,2.90
2023-07-11T09:31:10.891Z,2.90
2023-07-11T09:33:41.041Z,3.30
2023-07-11T09:36:31.497Z,2.90
2023-07-11T09:39:13.876Z,2.90
2023-07-11T09:42:06.175Z,2.80
2023-07-11T09:44:34.531Z,2.80
2023-07-11T09:47:18.886Z,2.90
2023-07-11T09:49:48.217Z,3.10
2023-07-11T09:52:27.797Z,3.30
2023-07-11T09:55:07.841Z,3.00
2023-07-11T09:57:45.693Z,2.90
2023-07-11T10:02:48.781Z,3.30
2023-07-11T10:05:18.471Z,3.00
2023-07-11T10:07:48.770Z,3.50
2023-07-11T10:10:16.958Z,2.90
2023-07-11T10:12:46.501Z,3.10
2023-07-11T10:15:16.329Z,3.10
2023-07-11T10:17:45.252Z,3.80
2023-07-11T10:20:19.722Z,3.10
2023-07-11T10:22:51.439Z,3.10
2023-07-11T10:25:23.018Z,2.90
2023-07-11T10:27:57.913Z,3.40
2023-07-11T10:30:28.754Z,3.20
2023-07-11T10:33:23.368Z,3.50
2023-07-11T10:36:04.560Z,3.30
2023-07-11T10:39:00.127Z,3.70
2023-07-11T10:41:42.104Z,3.70
2023-07-11T10:44:23.364Z,3.90
2023-07-11T10:46:53.372Z,3.50
2023-07-11T10:49:30.348Z,3.80
2023-07-11T10:52:20.961Z,3.50
2023-07-11T10:55:30.045Z,3.90
2023-07-11T10:57:58.958Z,3.80
2023-07-11T11:01:06.980Z,3.90
2023-07-11T11:03:45.040Z,3.80
2023-07-11T11:06:33.032Z,3.60
2023-07-11T11:09:16.972Z,3.60
2023-07-11T11:12:30.499Z,3.60
2023-07-11T11:15:24.452Z,4.00
2023-07-11T11:18:18.524Z,3.90
2023-07-11T11:21:13.280Z,3.80
2023-07-11T11:24:00.574Z,3.90
2023-07-11T11:26:33.972Z,4.00
2023-07-11T11:29:24.503Z,3.90
2023-07-11T11:32:00.754Z,4.10
2023-07-11T11:35:15.341Z,3.80
2023-07-11T11:38:18.507Z,3.70
2023-07-11T11:40:50.739Z,3.70
2023-07-11T11:43:29.645Z,4.20
2023-07-11T11:46:29.004Z,4.00
2023-07-11T11:51:24.916Z,3.60
2023-07-11T11:54:14.779Z,3.80
2023-07-11T11:56:48.059Z,4.10
2023-07-11T11:59:19.291Z,3.80
2023-07-11T12:02:01.537Z,3.60
2023-07-11T12:04:35.956Z,3.80
2023-07-11T12:07:07.679Z,3.70
2023-07-11T12:09:49.419Z,3.90
2023-07-11T12:12:20.590Z,4.00
2023-07-11T12:14:51.404Z,3.70
2023-07-11T12:17:34.732Z,3.80
2023-07-11T12:20:06.487Z,4.00
2023-07-11T12:22:40.354Z,4.20
2023-07-11T12:25:18.848Z,4.40
2023-07-11T12:28:01.719Z,3.70
2023-07-11T12:30:39.801Z,4.30
2023-07-11T12:33:38.965Z,4.00
2023-07-11T12:36:06.972Z,4.30
2023-07-11T12:38:56.896Z,4.50
2023-07-11T12:41:43.333Z,3.80
2023-07-11T12:44:16.490Z,4.30
2023-07-11T12:46:46.618Z,4.10
2023-07-11T12:49:25.651Z,3.90
2023-07-11T12:52:07.441Z,4.00
2023-07-11T12:54:35.799Z,3.90
2023-07-11T12:57:04.208Z,4.00
2023-07-11T12:59:32.378Z,4.00
2023-07-11T13:02:05.953Z,3.70
2023-07-11T13:04:45.978Z,3.80
2023-07-11T13:07:17.586Z,3.90
2023-07-11T13:09:50.059Z,4.20
2023-07-11T13:12:23.816Z,3.80
2023-07-11T13:14:52.091Z,3.40
2023-07-11T13:17:26.983Z,3.80
2023-07-11T13:20:00.103Z,3.60
2023-07-11T13:22:28.590Z,3.60
2023-07-11T13:24:58.094Z,3.60
2023-07-11T13:27:35.347Z,3.90
2023-07-11T13:30:03.539Z,3.70
2023-07-11T13:32:31.341Z,3.60
2023-07-11T13:35:22.549Z,3.70
2023-07-11T13:37:51.389Z,4.00
2023-07-11T13:40:39.096Z,3.90
2023-07-11T13:43:21.477Z,4.10
2023-07-11T13:45:51.846Z,4.20
2023-07-11T13:48:27.753Z,4.50
2023-07-11T13:51:17.607Z,4.20
2023-07-11T13:53:50.264Z,4.10
2023-07-11T13:56:18.403Z,4.20
2023-07-11T13:58:47.469Z,4.10
2023-07-11T14:01:20.075Z,4.10
2023-07-11T14:03:48.443Z,3.80
2023-07-11T14:06:17.507Z,4.30
2023-07-11T14:08:45.173Z,4.20
2023-07-11T14:11:15.904Z,4.10
2023-07-11T14:13:43.698Z,4.30
2023-07-11T14:16:11.852Z,4.40
2023-07-11T14:18:39.552Z,3.90
2023-07-11T14:21:10.808Z,4.20
2023-07-11T14:23:38.487Z,4.40
2023-07-11T14:26:06.186Z,4.50
2023-07-11T14:28:34.059Z,3.80
2023-07-11T14:31:03.248Z,4.40
2023-07-11T14:33:34.311Z,4.10
2023-07-11T14:36:02.310Z,3.90
2023-07-11T14:38:30.141Z,3.70
2023-07-11T14:40:58.016Z,4.20
2023-07-11T14:43:27.422Z,3.90
2023-07-11T14:45:55.365Z,4.00
2023-07-11T14:48:27.588Z,3.90
2023-07-11T14:51:02.323Z,3.80
2023-07-11T14:53:32.418Z,3.50
2023-07-11T14:57:14.934Z,4.40
2023-07-11T14:58:51.248Z,3.90
2023-07-11T15:01:19.329Z,3.70
2023-07-11T15:16:29.238Z,3.60
2023-07-11T15:18:56.993Z,3.90
2023-07-11T15:21:24.760Z,3.60
2023-07-11T15:23:52.445Z,3.70
2023-07-11T15:26:25.624Z,3.80
2023-07-11T15:28:54.297Z,3.60
2023-07-11T15:31:22.152Z,4.40
2023-07-11T15:33:51.471Z,4.20
2023-07-11T15:36:19.104Z,4.40
2023-07-11T15:38:47.008Z,4.10
2023-07-11T15:41:17.340Z,4.20
2023-07-11T15:43:45.583Z,3.60
2023-07-11T15:46:21.304Z,3.60
2023-07-11T15:48:51.728Z,3.80
2023-07-11T15:51:19.706Z,3.60
2023-07-11T15:53:47.434Z,3.40
2023-07-11T15:56:15.735Z,3.70
2023-07-11T15:58:43.430Z,4.00
2023-07-11T16:01:11.159Z,3.70
2023-07-11T16:03:39.164Z,3.60
2023-07-11T16:06:12.756Z,3.50
2023-07-11T16:08:40.430Z,3.20
2023-07-11T16:11:10.762Z,5.70
2023-07-11T16:13:39.233Z,8.70
2023-07-11T16:16:15.779Z,3.50
2023-07-11T16:18:43.717Z,3.20
2023-07-11T16:21:14.575Z,3.20
2023-07-11T16:23:42.360Z,3.50
2023-07-11T16:26:20.162Z,3.20
2023-07-11T16:28:48.313Z,9.80
2023-07-11T16:31:16.053Z,6.80
2023-07-11T16:33:44.062Z,3.20
2023-07-11T16:36:15.662Z,3.10
2023-07-11T16:38:43.637Z,3.70
2023-07-11T16:41:11.451Z,7.50
2023-07-11T16:43:39.154Z,4.40
2023-07-11T16:46:09.929Z,3.90
2023-07-11T16:48:37.762Z,3.70
2023-07-11T16:51:09.843Z,3.40
2023-07-11T16:53:37.818Z,3.00
2023-07-11T16:56:05.781Z,3.30
2023-07-11T16:58:41.947Z,4.40
2023-07-11T17:01:15.956Z,4.00
2023-07-11T17:03:44.229Z,4.40
2023-07-11T17:06:26.351Z,4.10
2023-07-11T17:08:55.724Z,4.40
2023-07-11T17:11:23.670Z,4.40
2023-07-11T17:13:51.506Z,4.40
2023-07-11T17:16:22.920Z,3.90
2023-07-11T17:18:50.770Z,4.10
2023-07-11T17:21:18.615Z,4.20
2023-07-11T17:23:46.763Z,4.30
2023-07-11T17:26:15.750Z,4.30
2023-07-11T17:28:43.548Z,4.00
2023-07-11T17:31:15.809Z,4.40
2023-07-11T17:33:43.834Z,4.20
2023-07-11T17:36:15.695Z,4.30
2023-07-11T17:38:45.329Z,4.00
2023-07-11T17:41:12.995Z,4.60
2023-07-11T17:43:42.375Z,4.50
2023-07-11T17:46:41.044Z,4.20
2023-07-11T17:49:04.717Z,4.20
2023-07-11T17:51:33.703Z,4.20
2023-07-11T17:54:01.484Z,4.10
2023-07-11T17:56:47.657Z,4.30
2023-07-11T17:59:18.623Z,4.60
2023-07-11T18:01:49.136Z,4.10
2023-07-11T18:04:17.154Z,4.20
2023-07-11T18:06:45.207Z,4.10
2023-07-11T18:09:12.878Z,4.60
2023-07-11T18:11:40.540Z,4.10
2023-07-11T18:14:08.361Z,5.00
2023-07-11T18:16:36.359Z,4.60
2023-07-11T18:19:04.330Z,4.50
2023-07-11T18:21:32.170Z,4.50
2023-07-11T18:23:59.810Z,5.00
2023-07-11T18:26:27.768Z,5.20
2023-07-11T18:28:55.443Z,5.50
2023-07-11T18:31:23.309Z,5.10
2023-07-11T18:33:51.738Z,5.70
2023-07-11T18:36:24.927Z,5.50
2023-07-11T18:38:53.708Z,6.10
2023-07-11T18:41:21.548Z,6.80
2023-07-11T18:43:49.609Z,5.70
2023-07-11T18:46:18.781Z,5.70
2023-07-11T18:48:46.912Z,5.70
2023-07-11T18:51:16.398Z,6.20
2023-07-11T18:53:44.758Z,6.30
2023-07-11T18:56:20.005Z,5.80
2023-07-11T18:58:47.684Z,6.80
2023-07-11T19:01:15.704Z,8.10
2023-07-11T19:03:44.117Z,7.70
2023-07-11T19:06:17.359Z,7.40
2023-07-11T19:08:48.572Z,7.00
2023-07-11T19:11:18.139Z,7.40
2023-07-11T19:13:46.448Z,6.60
2023-07-11T19:16:19.300Z,7.00
2023-07-11T19:18:47.217Z,6.60
2023-07-11T19:21:15.595Z,6.60
2023-07-11T19:23:43.562Z,6.50
2023-07-11T19:26:18.923Z,6.60
2023-07-11T19:28:47.090Z,6.50
2023-07-11T19:31:16.673Z,6.60
2023-07-11T19:33:44.641Z,6.30
2023-07-11T19:36:17.900Z,6.10
2023-07-11T19:38:46.575Z,7.20
2023-07-11T19:41:17.011Z,5.70
2023-07-11T19:43:47.117Z,6.20
2023-07-11T19:46:17.536Z,6.60
2023-07-11T19:48:45.868Z,6.30
2023-07-11T19:51:13.956Z,6.70
2023-07-11T19:53:42.585Z,6.70
2023-07-11T19:56:22.298Z,6.60
2023-07-11T19:58:50.901Z,6.60
2023-07-11T20:01:19.006Z,6.80
2023-07-11T20:03:46.984Z,6.90
2023-07-11T20:06:23.148Z,6.50
2023-07-11T20:08:52.272Z,7.30
2023-07-11T20:11:20.186Z,7.00
2023-07-11T20:13:48.417Z,6.60
2023-07-11T20:16:24.355Z,6.50
2023-07-11T20:18:52.994Z,7.00
2023-07-11T20:21:22.618Z,6.50
2023-07-11T20:23:52.521Z,6.80
2023-07-11T20:26:25.328Z,6.90
2023-07-11T20:28:54.323Z,6.90
2023-07-11T20:31:23.078Z,7.70
2023-07-11T20:33:50.972Z,7.60
2023-07-11T20:36:25.452Z,6.80
2023-07-11T20:38:55.540Z,6.70
2023-07-11T20:41:24.234Z,6.70
2023-07-11T20:43:52.128Z,7.00
2023-07-11T20:46:22.211Z,7.20
2023-07-11T20:48:50.842Z,7.10
2023-07-11T20:51:20.186Z,7.20
2023-07-11T20:53:48.766Z,6.60
2023-07-11T20:56:24.308Z,6.60
2023-07-11T20:58:55.731Z,6.10
2023-07-11T21:01:24.730Z,6.50
2023-07-11T21:03:52.680Z,6.00
2023-07-11T21:06:30.353Z,6.50
2023-07-11T21:08:58.946Z,6.00
2023-07-11T21:11:26.891Z,6.00
2023-07-11T21:13:55.096Z,6.40
2023-07-11T21:16:26.128Z,5.80
2023-07-11T21:18:54.130Z,6.10
2023-07-11T21:21:22.279Z,6.40
2023-07-11T21:23:50.188Z,5.90
2023-07-11T21:26:19.948Z,5.90
2023-07-11T21:28:48.191Z,6.00
2023-07-11T21:31:18.438Z,5.40
2023-07-11T21:33:47.796Z,5.70
2023-07-11T21:36:20.957Z,5.80
2023-07-11T21:38:50.348Z,5.90
2023-07-11T21:41:20.737Z,5.70
2023-07-11T21:43:48.695Z,5.60
2023-07-11T21:46:16.595Z,5.40
2023-07-11T21:48:44.350Z,6.00
2023-07-11T21:51:14.951Z,5.80
2023-07-11T21:53:42.664Z,5.80
2023-07-11T21:56:10.552Z,5.60
2023-07-11T21:58:38.313Z,5.30
2023-07-11T22:01:06.447Z,5.90
2023-07-11T22:03:36.125Z,5.60
2023-07-11T22:06:39.558Z,5.60
2023-07-11T22:09:07.219Z,5.80
2023-07-11T22:11:34.993Z,6.60
2023-07-11T22:14:03.574Z,5.90
2023-07-11T22:16:31.410Z,5.90
2023-07-11T22:18:59.643Z,5.40
2023-07-11T22:21:27.965Z,6.10
2023-07-11T22:23:57.852Z,6.20
2023-07-11T22:26:30.894Z,5.60
2023-07-11T22:29:02.676Z,5.50
2023-07-11T22:31:31.063Z,5.70
2023-07-11T22:33:58.934Z,6.30
2023-07-11T22:36:26.709Z,5.70
2023-07-11T22:38:54.363Z,5.90
2023-07-11T22:41:22.150Z,6.10
2023-07-11T22:43:49.846Z,5.80
2023-07-11T22:46:20.183Z,5.40
2023-07-11T22:48:49.367Z,5.30
2023-07-11T22:51:18.460Z,5.50
2023-07-11T22:53:47.833Z,5.70
2023-07-11T22:56:21.405Z,5.20
2023-07-11T22:58:50.135Z,5.30
2023-07-11T23:01:19.562Z,5.10
2023-07-11T23:03:47.687Z,5.50
2023-07-11T23:06:21.215Z,5.10
2023-07-11T23:08:49.588Z,5.30
2023-07-11T23:11:18.150Z,5.10
2023-07-11T23:13:46.681Z,4.90
2023-07-11T23:16:20.128Z,5.40
2023-07-11T23:18:48.037Z,5.50
2023-07-11T23:21:15.932Z,5.10
2023-07-11T23:23:43.688Z,5.00
2023-07-11T23:26:13.989Z,5.30
2023-07-11T23:28:42.098Z,5.20
2023-07-11T23:31:10.974Z,5.20
2023-07-11T23:33:39.631Z,5.60
2023-07-11T23:36:13.570Z,5.20
2023-07-11T23:38:41.323Z,5.20
2023-07-11T23:41:15.605Z,5.30
2023-07-11T23:43:44.870Z,4.80
2023-07-11T23:46:21.692Z,5.50
2023-07-11T23:48:50.932Z,5.40
2023-07-11T23:51:20.365Z,5.50
2023-07-11T23:53:50.224Z,5.60
2023-07-11T23:56:26.839Z,5.70
2023-07-11T23:58:55.823Z,5.10
